sensor_id;sensor_type;location;lat;lon;timestamp;P1;durP1;ratioP1;P2;durP2;ratioP2
27412;SDS011;14871;52.702;5.230;2023-05-09T00:01:38;31.75;;;17.88;;
27412;SDS011;14871;52.702;5.230;2023-05-09T00:04:05;33.42;;;18.77;;
27412;SDS011;14871;52.702;5.230;2023-05-09T00:06:31;33.75;;;18.90;;
27412;SDS011;14871;52.702;5.230;2023-05-09T00:08:57;39.22;;;20.33;;
27412;SDS011;14871;52.702;5.230;2023-05-09T00:11:23;36.08;;;20.10;;
27412;SDS011;14871;52.702;5.230;2023-05-09T00:13:49;36.00;;;21.13;;
27412;SDS011;14871;52.702;5.230;2023-05-09T00:16:16;36.55;;;22.00;;
27412;SDS011;14871;52.702;5.230;2023-05-09T00:18:42;37.97;;;23.33;;
27412;SDS011;14871;52.702;5.230;2023-05-09T00:21:08;38.83;;;24.00;;
27412;SDS011;14871;52.702;5.230;2023-05-09T00:23:35;35.92;;;22.00;;
27412;SDS011;14871;52.702;5.230;2023-05-09T00:26:01;39.72;;;23.98;;
27412;SDS011;14871;52.702;5.230;2023-05-09T00:28:27;44.92;;;27.38;;
27412;SDS011;14871;52.702;5.230;2023-05-09T00:30:53;42.97;;;25.95;;
27412;SDS011;14871;52.702;5.230;2023-05-09T00:33:19;44.17;;;27.20;;
27412;SDS011;14871;52.702;5.230;2023-05-09T00:35:44;48.45;;;29.63;;
27412;SDS011;14871;52.702;5.230;2023-05-09T00:38:11;42.65;;;27.48;;
27412;SDS011;14871;52.702;5.230;2023-05-09T00:40:37;49.75;;;30.55;;
27412;SDS011;14871;52.702;5.230;2023-05-09T00:43:03;55.47;;;30.80;;
27412;SDS011;14871;52.702;5.230;2023-05-09T00:45:29;51.17;;;30.20;;
27412;SDS011;14871;52.702;5.230;2023-05-09T00:47:55;52.08;;;30.77;;
27412;SDS011;14871;52.702;5.230;2023-05-09T00:50:21;51.30;;;30.13;;
27412;SDS011;14871;52.702;5.230;2023-05-09T00:52:49;55.00;;;31.50;;
27412;SDS011;14871;52.702;5.230;2023-05-09T00:55:15;58.10;;;33.25;;
27412;SDS011;14871;52.702;5.230;2023-05-09T00:57:42;58.03;;;35.10;;
27412;SDS011;14871;52.702;5.230;2023-05-09T01:00:08;56.72;;;33.35;;
27412;SDS011;14871;52.702;5.230;2023-05-09T01:02:37;62.55;;;33.88;;
27412;SDS011;14871;52.702;5.230;2023-05-09T01:05:04;61.00;;;33.75;;
27412;SDS011;14871;52.702;5.230;2023-05-09T01:07:37;60.20;;;33.85;;
27412;SDS011;14871;52.702;5.230;2023-05-09T01:15:40;59.00;;;32.85;;
27412;SDS011;14871;52.702;5.230;2023-05-09T01:20:42;55.80;;;33.10;;
27412;SDS011;14871;52.702;5.230;2023-05-09T01:26:29;60.50;;;35.95;;
27412;SDS011;14871;52.702;5.230;2023-05-09T01:31:55;64.05;;;36.30;;
27412;SDS011;14871;52.702;5.230;2023-05-09T01:34:23;69.13;;;38.92;;
27412;SDS011;14871;52.702;5.230;2023-05-09T01:36:53;72.03;;;40.45;;
27412;SDS011;14871;52.702;5.230;2023-05-09T01:39:22;71.03;;;41.33;;
27412;SDS011;14871;52.702;5.230;2023-05-09T01:41:51;75.40;;;41.40;;
27412;SDS011;14871;52.702;5.230;2023-05-09T01:44:19;73.40;;;42.03;;
27412;SDS011;14871;52.702;5.230;2023-05-09T01:46:46;84.15;;;45.53;;
27412;SDS011;14871;52.702;5.230;2023-05-09T01:49:14;81.00;;;44.80;;
27412;SDS011;14871;52.702;5.230;2023-05-09T01:51:41;86.80;;;46.88;;
27412;SDS011;14871;52.702;5.230;2023-05-09T01:54:09;85.43;;;46.17;;
27412;SDS011;14871;52.702;5.230;2023-05-09T01:56:36;83.30;;;47.28;;
27412;SDS011;14871;52.702;5.230;2023-05-09T01:59:04;90.05;;;48.40;;
27412;SDS011;14871;52.702;5.230;2023-05-09T02:01:31;84.72;;;46.67;;
27412;SDS011;14871;52.702;5.230;2023-05-09T02:03:58;85.82;;;48.00;;
27412;SDS011;14871;52.702;5.230;2023-05-09T02:06:24;93.00;;;48.78;;
27412;SDS011;14871;52.702;5.230;2023-05-09T02:08:53;89.20;;;48.67;;
27412;SDS011;14871;52.702;5.230;2023-05-09T02:11:20;87.15;;;50.15;;
27412;SDS011;14871;52.702;5.230;2023-05-09T02:13:46;91.45;;;50.47;;
27412;SDS011;14871;52.702;5.230;2023-05-09T02:16:12;84.40;;;48.13;;
27412;SDS011;14871;52.702;5.230;2023-05-09T02:18:38;87.50;;;50.20;;
27412;SDS011;14871;52.702;5.230;2023-05-09T02:21:04;85.95;;;49.33;;
27412;SDS011;14871;52.702;5.230;2023-05-09T02:23:30;91.13;;;49.63;;
27412;SDS011;14871;52.702;5.230;2023-05-09T02:25:56;85.75;;;49.33;;
27412;SDS011;14871;52.702;5.230;2023-05-09T02:28:22;93.03;;;50.58;;
27412;SDS011;14871;52.702;5.230;2023-05-09T02:30:49;91.15;;;51.60;;
27412;SDS011;14871;52.702;5.230;2023-05-09T02:33:17;87.57;;;49.72;;
27412;SDS011;14871;52.702;5.230;2023-05-09T02:35:43;88.03;;;49.25;;
27412;SDS011;14871;52.702;5.230;2023-05-09T02:38:10;90.07;;;50.85;;
27412;SDS011;14871;52.702;5.230;2023-05-09T02:40:37;86.65;;;48.55;;
27412;SDS011;14871;52.702;5.230;2023-05-09T02:43:03;83.75;;;49.05;;
27412;SDS011;14871;52.702;5.230;2023-05-09T02:45:29;83.85;;;47.72;;
27412;SDS011;14871;52.702;5.230;2023-05-09T02:47:56;80.32;;;48.63;;
27412;SDS011;14871;52.702;5.230;2023-05-09T02:50:21;84.03;;;48.30;;
27412;SDS011;14871;52.702;5.230;2023-05-09T02:52:47;83.65;;;47.80;;
27412;SDS011;14871;52.702;5.230;2023-05-09T02:55:13;82.90;;;49.20;;
27412;SDS011;14871;52.702;5.230;2023-05-09T02:57:38;82.22;;;49.22;;
27412;SDS011;14871;52.702;5.230;2023-05-09T03:00:06;87.47;;;50.00;;
27412;SDS011;14871;52.702;5.230;2023-05-09T03:02:35;87.25;;;48.88;;
27412;SDS011;14871;52.702;5.230;2023-05-09T03:05:01;86.18;;;49.92;;
27412;SDS011;14871;52.702;5.230;2023-05-09T03:07:27;84.22;;;49.38;;
27412;SDS011;14871;52.702;5.230;2023-05-09T03:09:53;87.97;;;49.03;;
27412;SDS011;14871;52.702;5.230;2023-05-09T03:12:19;88.82;;;49.35;;
27412;SDS011;14871;52.702;5.230;2023-05-09T03:14:45;84.85;;;47.72;;
27412;SDS011;14871;52.702;5.230;2023-05-09T03:17:11;78.85;;;48.72;;
27412;SDS011;14871;52.702;5.230;2023-05-09T03:19:41;84.78;;;49.95;;
27412;SDS011;14871;52.702;5.230;2023-05-09T03:22:07;78.55;;;46.63;;
27412;SDS011;14871;52.702;5.230;2023-05-09T03:24:32;81.68;;;47.33;;
27412;SDS011;14871;52.702;5.230;2023-05-09T03:26:58;81.40;;;45.03;;
27412;SDS011;14871;52.702;5.230;2023-05-09T03:29:24;83.97;;;49.72;;
27412;SDS011;14871;52.702;5.230;2023-05-09T03:31:49;82.35;;;47.80;;
27412;SDS011;14871;52.702;5.230;2023-05-09T03:34:16;85.20;;;48.40;;
27412;SDS011;14871;52.702;5.230;2023-05-09T03:36:41;80.40;;;45.83;;
27412;SDS011;14871;52.702;5.230;2023-05-09T03:39:07;82.97;;;46.67;;
27412;SDS011;14871;52.702;5.230;2023-05-09T03:41:34;77.95;;;43.15;;
27412;SDS011;14871;52.702;5.230;2023-05-09T03:44:00;82.72;;;45.55;;
27412;SDS011;14871;52.702;5.230;2023-05-09T03:46:26;82.22;;;44.90;;
27412;SDS011;14871;52.702;5.230;2023-05-09T03:48:52;76.55;;;45.50;;
27412;SDS011;14871;52.702;5.230;2023-05-09T03:51:17;82.93;;;45.85;;
27412;SDS011;14871;52.702;5.230;2023-05-09T03:53:44;78.03;;;42.90;;
27412;SDS011;14871;52.702;5.230;2023-05-09T03:56:11;73.78;;;42.00;;
27412;SDS011;14871;52.702;5.230;2023-05-09T03:58:37;83.10;;;44.40;;
27412;SDS011;14871;52.702;5.230;2023-05-09T04:01:02;79.88;;;44.83;;
27412;SDS011;14871;52.702;5.230;2023-05-09T04:03:28;79.50;;;45.33;;
27412;SDS011;14871;52.702;5.230;2023-05-09T04:05:54;72.97;;;42.85;;
27412;SDS011;14871;52.702;5.230;2023-05-09T04:08:20;77.15;;;43.05;;
27412;SDS011;14871;52.702;5.230;2023-05-09T04:10:46;76.93;;;42.78;;
27412;SDS011;14871;52.702;5.230;2023-05-09T04:13:13;79.22;;;43.35;;
27412;SDS011;14871;52.702;5.230;2023-05-09T04:15:39;75.80;;;42.80;;
27412;SDS011;14871;52.702;5.230;2023-05-09T04:18:04;75.13;;;42.67;;
27412;SDS011;14871;52.702;5.230;2023-05-09T04:20:30;73.53;;;43.38;;
27412;SDS011;14871;52.702;5.230;2023-05-09T04:22:56;77.22;;;43.08;;
27412;SDS011;14871;52.702;5.230;2023-05-09T04:25:23;71.68;;;41.75;;
27412;SDS011;14871;52.702;5.230;2023-05-09T04:27:49;75.22;;;43.25;;
27412;SDS011;14871;52.702;5.230;2023-05-09T04:30:14;77.05;;;42.92;;
27412;SDS011;14871;52.702;5.230;2023-05-09T04:32:40;77.40;;;42.78;;
27412;SDS011;14871;52.702;5.230;2023-05-09T04:35:09;66.28;;;40.10;;
27412;SDS011;14871;52.702;5.230;2023-05-09T04:37:36;70.65;;;41.25;;
27412;SDS011;14871;52.702;5.230;2023-05-09T04:40:02;70.03;;;39.13;;
27412;SDS011;14871;52.702;5.230;2023-05-09T04:42:29;68.78;;;39.67;;
27412;SDS011;14871;52.702;5.230;2023-05-09T04:44:57;65.80;;;40.20;;
27412;SDS011;14871;52.702;5.230;2023-05-09T04:47:23;68.43;;;39.90;;
27412;SDS011;14871;52.702;5.230;2023-05-09T04:49:50;61.42;;;38.40;;
27412;SDS011;14871;52.702;5.230;2023-05-09T04:52:15;66.82;;;38.20;;
27412;SDS011;14871;52.702;5.230;2023-05-09T04:54:41;66.20;;;38.85;;
27412;SDS011;14871;52.702;5.230;2023-05-09T04:57:07;63.63;;;38.20;;
27412;SDS011;14871;52.702;5.230;2023-05-09T04:59:33;64.50;;;38.58;;
27412;SDS011;14871;52.702;5.230;2023-05-09T05:01:59;69.30;;;37.78;;
27412;SDS011;14871;52.702;5.230;2023-05-09T05:04:25;63.83;;;37.40;;
27412;SDS011;14871;52.702;5.230;2023-05-09T05:06:52;67.90;;;38.17;;
27412;SDS011;14871;52.702;5.230;2023-05-09T05:09:17;73.13;;;39.13;;
27412;SDS011;14871;52.702;5.230;2023-05-09T05:11:43;67.93;;;38.50;;
27412;SDS011;14871;52.702;5.230;2023-05-09T05:14:09;62.70;;;37.40;;
27412;SDS011;14871;52.702;5.230;2023-05-09T05:16:34;61.17;;;35.70;;
27412;SDS011;14871;52.702;5.230;2023-05-09T05:19:00;66.50;;;36.55;;
27412;SDS011;14871;52.702;5.230;2023-05-09T05:21:26;66.93;;;37.63;;
27412;SDS011;14871;52.702;5.230;2023-05-09T05:23:51;65.05;;;38.15;;
27412;SDS011;14871;52.702;5.230;2023-05-09T05:26:17;62.53;;;37.10;;
27412;SDS011;14871;52.702;5.230;2023-05-09T05:28:43;60.35;;;36.30;;
27412;SDS011;14871;52.702;5.230;2023-05-09T05:31:08;56.47;;;35.03;;
27412;SDS011;14871;52.702;5.230;2023-05-09T05:33:34;57.05;;;34.08;;
27412;SDS011;14871;52.702;5.230;2023-05-09T05:36:00;58.08;;;34.65;;
27412;SDS011;14871;52.702;5.230;2023-05-09T05:38:25;60.38;;;35.75;;
27412;SDS011;14871;52.702;5.230;2023-05-09T05:40:51;57.78;;;32.70;;
27412;SDS011;14871;52.702;5.230;2023-05-09T05:43:16;54.65;;;32.72;;
27412;SDS011;14871;52.702;5.230;2023-05-09T05:45:42;58.83;;;33.50;;
27412;SDS011;14871;52.702;5.230;2023-05-09T05:48:08;55.53;;;33.13;;
27412;SDS011;14871;52.702;5.230;2023-05-09T05:50:33;49.85;;;30.63;;
27412;SDS011;14871;52.702;5.230;2023-05-09T05:53:00;50.53;;;32.85;;
27412;SDS011;14871;52.702;5.230;2023-05-09T05:55:26;50.53;;;31.25;;
27412;SDS011;14871;52.702;5.230;2023-05-09T05:57:52;48.60;;;29.20;;
27412;SDS011;14871;52.702;5.230;2023-05-09T06:00:17;47.10;;;28.10;;
27412;SDS011;14871;52.702;5.230;2023-05-09T06:02:44;48.42;;;28.25;;
27412;SDS011;14871;52.702;5.230;2023-05-09T06:05:11;46.38;;;28.00;;
27412;SDS011;14871;52.702;5.230;2023-05-09T06:07:37;46.67;;;28.75;;
27412;SDS011;14871;52.702;5.230;2023-05-09T06:10:05;44.55;;;28.27;;
27412;SDS011;14871;52.702;5.230;2023-05-09T06:12:32;49.58;;;29.48;;
27412;SDS011;14871;52.702;5.230;2023-05-09T06:14:57;45.63;;;28.27;;
27412;SDS011;14871;52.702;5.230;2023-05-09T06:17:23;47.65;;;28.52;;
27412;SDS011;14871;52.702;5.230;2023-05-09T06:19:49;45.55;;;27.45;;
27412;SDS011;14871;52.702;5.230;2023-05-09T06:22:14;44.55;;;28.48;;
27412;SDS011;14871;52.702;5.230;2023-05-09T06:24:40;43.40;;;26.80;;
27412;SDS011;14871;52.702;5.230;2023-05-09T06:27:06;44.15;;;26.90;;
27412;SDS011;14871;52.702;5.230;2023-05-09T06:29:31;43.88;;;26.63;;
27412;SDS011;14871;52.702;5.230;2023-05-09T06:31:57;42.05;;;28.25;;
27412;SDS011;14871;52.702;5.230;2023-05-09T06:34:23;42.78;;;26.50;;
27412;SDS011;14871;52.702;5.230;2023-05-09T06:36:48;42.40;;;27.63;;
27412;SDS011;14871;52.702;5.230;2023-05-09T06:39:15;41.55;;;25.98;;
27412;SDS011;14871;52.702;5.230;2023-05-09T06:41:40;41.67;;;27.20;;
27412;SDS011;14871;52.702;5.230;2023-05-09T06:44:06;43.33;;;26.58;;
27412;SDS011;14871;52.702;5.230;2023-05-09T06:46:32;42.22;;;25.95;;
27412;SDS011;14871;52.702;5.230;2023-05-09T06:48:57;44.33;;;27.42;;
27412;SDS011;14871;52.702;5.230;2023-05-09T06:51:25;41.85;;;26.25;;
27412;SDS011;14871;52.702;5.230;2023-05-09T06:53:51;42.95;;;27.25;;
27412;SDS011;14871;52.702;5.230;2023-05-09T06:56:17;42.78;;;27.15;;
27412;SDS011;14871;52.702;5.230;2023-05-09T06:58:44;44.05;;;26.42;;
27412;SDS011;14871;52.702;5.230;2023-05-09T07:01:09;41.88;;;26.85;;
27412;SDS011;14871;52.702;5.230;2023-05-09T07:03:35;43.00;;;27.50;;
27412;SDS011;14871;52.702;5.230;2023-05-09T07:06:01;44.20;;;26.83;;
27412;SDS011;14871;52.702;5.230;2023-05-09T07:08:26;40.22;;;26.65;;
27412;SDS011;14871;52.702;5.230;2023-05-09T07:10:52;39.90;;;25.50;;
27412;SDS011;14871;52.702;5.230;2023-05-09T07:13:18;42.65;;;25.92;;
27412;SDS011;14871;52.702;5.230;2023-05-09T07:15:43;40.45;;;25.38;;
27412;SDS011;14871;52.702;5.230;2023-05-09T07:18:09;40.65;;;26.02;;
27412;SDS011;14871;52.702;5.230;2023-05-09T07:20:35;44.25;;;27.17;;
27412;SDS011;14871;52.702;5.230;2023-05-09T07:23:01;42.55;;;25.42;;
27412;SDS011;14871;52.702;5.230;2023-05-09T07:25:28;36.80;;;24.73;;
27412;SDS011;14871;52.702;5.230;2023-05-09T07:27:54;42.53;;;25.45;;
27412;SDS011;14871;52.702;5.230;2023-05-09T07:30:19;40.65;;;25.73;;
27412;SDS011;14871;52.702;5.230;2023-05-09T07:32:45;35.97;;;23.83;;
27412;SDS011;14871;52.702;5.230;2023-05-09T07:35:11;38.70;;;26.17;;
27412;SDS011;14871;52.702;5.230;2023-05-09T07:37:36;41.00;;;24.95;;
27412;SDS011;14871;52.702;5.230;2023-05-09T07:40:02;39.35;;;25.38;;
27412;SDS011;14871;52.702;5.230;2023-05-09T07:42:30;38.13;;;23.58;;
27412;SDS011;14871;52.702;5.230;2023-05-09T07:44:56;33.67;;;24.60;;
27412;SDS011;14871;52.702;5.230;2023-05-09T07:47:23;39.40;;;25.38;;
27412;SDS011;14871;52.702;5.230;2023-05-09T07:49:49;39.35;;;25.00;;
27412;SDS011;14871;52.702;5.230;2023-05-09T07:52:15;40.28;;;25.40;;
27412;SDS011;14871;52.702;5.230;2023-05-09T07:54:42;38.65;;;25.85;;
27412;SDS011;14871;52.702;5.230;2023-05-09T07:57:08;42.70;;;26.10;;
27412;SDS011;14871;52.702;5.230;2023-05-09T07:59:33;38.90;;;24.95;;
27412;SDS011;14871;52.702;5.230;2023-05-09T08:01:59;45.25;;;26.58;;
27412;SDS011;14871;52.702;5.230;2023-05-09T08:04:25;38.60;;;25.20;;
27412;SDS011;14871;52.702;5.230;2023-05-09T08:06:50;41.97;;;25.98;;
27412;SDS011;14871;52.702;5.230;2023-05-09T08:09:16;40.17;;;26.45;;
27412;SDS011;14871;52.702;5.230;2023-05-09T08:11:42;35.05;;;25.35;;
27412;SDS011;14871;52.702;5.230;2023-05-09T08:14:09;38.28;;;25.23;;
27412;SDS011;14871;52.702;5.230;2023-05-09T08:16:35;35.22;;;24.35;;
27412;SDS011;14871;52.702;5.230;2023-05-09T08:19:00;35.63;;;23.20;;
27412;SDS011;14871;52.702;5.230;2023-05-09T08:21:27;38.00;;;23.73;;
27412;SDS011;14871;52.702;5.230;2023-05-09T08:23:53;38.65;;;24.13;;
27412;SDS011;14871;52.702;5.230;2023-05-09T08:26:19;37.30;;;24.02;;
27412;SDS011;14871;52.702;5.230;2023-05-09T08:28:46;36.83;;;25.92;;
27412;SDS011;14871;52.702;5.230;2023-05-09T08:31:12;37.42;;;24.90;;
27412;SDS011;14871;52.702;5.230;2023-05-09T08:33:37;36.15;;;24.13;;
27412;SDS011;14871;52.702;5.230;2023-05-09T08:36:03;38.63;;;27.35;;
27412;SDS011;14871;52.702;5.230;2023-05-09T08:38:30;37.30;;;25.30;;
27412;SDS011;14871;52.702;5.230;2023-05-09T08:40:59;37.25;;;25.80;;
27412;SDS011;14871;52.702;5.230;2023-05-09T08:43:25;36.03;;;25.73;;
27412;SDS011;14871;52.702;5.230;2023-05-09T08:45:57;34.83;;;24.45;;
27412;SDS011;14871;52.702;5.230;2023-05-09T08:48:24;37.53;;;25.33;;
27412;SDS011;14871;52.702;5.230;2023-05-09T08:50:52;36.67;;;25.33;;
27412;SDS011;14871;52.702;5.230;2023-05-09T08:53:20;34.85;;;25.83;;
27412;SDS011;14871;52.702;5.230;2023-05-09T08:55:47;33.75;;;24.42;;
27412;SDS011;14871;52.702;5.230;2023-05-09T08:58:14;37.88;;;26.88;;
27412;SDS011;14871;52.702;5.230;2023-05-09T09:00:41;30.02;;;23.65;;
27412;SDS011;14871;52.702;5.230;2023-05-09T09:03:07;32.97;;;23.85;;
27412;SDS011;14871;52.702;5.230;2023-05-09T09:05:33;31.15;;;20.83;;
27412;SDS011;14871;52.702;5.230;2023-05-09T09:08:02;29.85;;;21.85;;
27412;SDS011;14871;52.702;5.230;2023-05-09T09:10:31;30.48;;;21.95;;
27412;SDS011;14871;52.702;5.230;2023-05-09T09:13:01;25.73;;;20.95;;
27412;SDS011;14871;52.702;5.230;2023-05-09T09:15:29;29.63;;;21.45;;
27412;SDS011;14871;52.702;5.230;2023-05-09T09:18:04;27.08;;;19.95;;
27412;SDS011;14871;52.702;5.230;2023-05-09T09:20:33;24.58;;;18.98;;
27412;SDS011;14871;52.702;5.230;2023-05-09T09:22:59;24.85;;;19.10;;
27412;SDS011;14871;52.702;5.230;2023-05-09T09:25:28;24.63;;;17.88;;
27412;SDS011;14871;52.702;5.230;2023-05-09T09:27:54;21.20;;;16.30;;
27412;SDS011;14871;52.702;5.230;2023-05-09T09:30:21;24.33;;;17.15;;
27412;SDS011;14871;52.702;5.230;2023-05-09T09:32:48;21.23;;;16.83;;
27412;SDS011;14871;52.702;5.230;2023-05-09T09:35:14;20.20;;;15.93;;
27412;SDS011;14871;52.702;5.230;2023-05-09T09:37:41;19.58;;;15.73;;
27412;SDS011;14871;52.702;5.230;2023-05-09T09:40:10;22.65;;;17.60;;
27412;SDS011;14871;52.702;5.230;2023-05-09T09:42:43;22.23;;;17.08;;
27412;SDS011;14871;52.702;5.230;2023-05-09T09:45:11;21.52;;;16.83;;
27412;SDS011;14871;52.702;5.230;2023-05-09T09:47:38;20.60;;;17.00;;
27412;SDS011;14871;52.702;5.230;2023-05-09T09:50:11;22.90;;;17.92;;
27412;SDS011;14871;52.702;5.230;2023-05-09T09:52:42;24.45;;;18.48;;
27412;SDS011;14871;52.702;5.230;2023-05-09T09:55:16;21.58;;;16.83;;
27412;SDS011;14871;52.702;5.230;2023-05-09T09:57:42;20.35;;;17.35;;
27412;SDS011;14871;52.702;5.230;2023-05-09T10:00:10;23.42;;;17.20;;
27412;SDS011;14871;52.702;5.230;2023-05-09T10:02:56;21.48;;;17.27;;
27412;SDS011;14871;52.702;5.230;2023-05-09T10:07:53;21.05;;;16.60;;
27412;SDS011;14871;52.702;5.230;2023-05-09T10:10:27;19.05;;;15.13;;
27412;SDS011;14871;52.702;5.230;2023-05-09T10:12:55;18.38;;;15.10;;
27412;SDS011;14871;52.702;5.230;2023-05-09T10:15:23;17.58;;;15.32;;
27412;SDS011;14871;52.702;5.230;2023-05-09T10:17:52;17.98;;;14.57;;
27412;SDS011;14871;52.702;5.230;2023-05-09T10:20:20;19.27;;;15.98;;
27412;SDS011;14871;52.702;5.230;2023-05-09T10:22:46;19.35;;;16.45;;
27412;SDS011;14871;52.702;5.230;2023-05-09T10:25:20;18.40;;;15.00;;
27412;SDS011;14871;52.702;5.230;2023-05-09T10:27:50;18.23;;;14.65;;
27412;SDS011;14871;52.702;5.230;2023-05-09T10:30:26;17.50;;;14.88;;
27412;SDS011;14871;52.702;5.230;2023-05-09T10:32:57;17.85;;;15.68;;
27412;SDS011;14871;52.702;5.230;2023-05-09T10:35:28;18.60;;;15.52;;
27412;SDS011;14871;52.702;5.230;2023-05-09T10:37:57;19.63;;;15.50;;
27412;SDS011;14871;52.702;5.230;2023-05-09T10:40:25;17.25;;;14.52;;
27412;SDS011;14871;52.702;5.230;2023-05-09T10:42:52;17.27;;;15.00;;
27412;SDS011;14871;52.702;5.230;2023-05-09T10:45:18;17.08;;;13.88;;
27412;SDS011;14871;52.702;5.230;2023-05-09T10:47:47;18.23;;;14.27;;
27412;SDS011;14871;52.702;5.230;2023-05-09T10:50:17;15.48;;;13.88;;
27412;SDS011;14871;52.702;5.230;2023-05-09T10:55:38;14.95;;;13.18;;
27412;SDS011;14871;52.702;5.230;2023-05-09T10:58:20;14.15;;;12.23;;
27412;SDS011;14871;52.702;5.230;2023-05-09T11:00:50;15.30;;;12.88;;
27412;SDS011;14871;52.702;5.230;2023-05-09T11:03:18;16.60;;;12.60;;
27412;SDS011;14871;52.702;5.230;2023-05-09T11:05:49;16.70;;;13.43;;
27412;SDS011;14871;52.702;5.230;2023-05-09T11:08:26;13.20;;;11.57;;
27412;SDS011;14871;52.702;5.230;2023-05-09T11:10:56;12.65;;;11.27;;
27412;SDS011;14871;52.702;5.230;2023-05-09T11:13:24;13.82;;;11.93;;
27412;SDS011;14871;52.702;5.230;2023-05-09T11:18:24;14.18;;;11.70;;
27412;SDS011;14871;52.702;5.230;2023-05-09T11:20:50;11.70;;;10.45;;
27412;SDS011;14871;52.702;5.230;2023-05-09T11:23:19;13.75;;;12.02;;
27412;SDS011;14871;52.702;5.230;2023-05-09T11:25:49;13.27;;;11.93;;
27412;SDS011;14871;52.702;5.230;2023-05-09T11:28:28;14.00;;;11.40;;
27412;SDS011;14871;52.702;5.230;2023-05-09T11:31:12;14.25;;;12.25;;
27412;SDS011;14871;52.702;5.230;2023-05-09T11:33:39;13.93;;;12.05;;
27412;SDS011;14871;52.702;5.230;2023-05-09T11:39:00;15.48;;;12.52;;
27412;SDS011;14871;52.702;5.230;2023-05-09T11:43:54;15.07;;;11.90;;
27412;SDS011;14871;52.702;5.230;2023-05-09T11:46:21;12.93;;;11.38;;
27412;SDS011;14871;52.702;5.230;2023-05-09T11:48:47;12.98;;;10.77;;
27412;SDS011;14871;52.702;5.230;2023-05-09T11:51:16;11.25;;;10.15;;
27412;SDS011;14871;52.702;5.230;2023-05-09T11:53:43;12.38;;;10.45;;
27412;SDS011;14871;52.702;5.230;2023-05-09T11:56:15;13.68;;;9.90;;
27412;SDS011;14871;52.702;5.230;2023-05-09T11:58:41;11.57;;;10.38;;
27412;SDS011;14871;52.702;5.230;2023-05-09T12:01:09;15.07;;;11.10;;
27412;SDS011;14871;52.702;5.230;2023-05-09T12:03:41;12.55;;;10.98;;
27412;SDS011;14871;52.702;5.230;2023-05-09T12:06:08;12.38;;;11.07;;
27412;SDS011;14871;52.702;5.230;2023-05-09T12:08:37;12.18;;;9.85;;
27412;SDS011;14871;52.702;5.230;2023-05-09T12:11:07;11.50;;;10.30;;
27412;SDS011;14871;52.702;5.230;2023-05-09T12:13:33;12.00;;;9.77;;
27412;SDS011;14871;52.702;5.230;2023-05-09T12:16:02;11.13;;;9.30;;
27412;SDS011;14871;52.702;5.230;2023-05-09T12:18:28;12.13;;;10.15;;
27412;SDS011;14871;52.702;5.230;2023-05-09T12:20:53;10.25;;;9.25;;
27412;SDS011;14871;52.702;5.230;2023-05-09T12:23:19;10.25;;;9.18;;
27412;SDS011;14871;52.702;5.230;2023-05-09T12:28:19;9.75;;;8.75;;
27412;SDS011;14871;52.702;5.230;2023-05-09T12:30:46;11.43;;;9.40;;
27412;SDS011;14871;52.702;5.230;2023-05-09T12:33:12;10.85;;;9.75;;
27412;SDS011;14871;52.702;5.230;2023-05-09T12:35:38;11.02;;;9.02;;
27412;SDS011;14871;52.702;5.230;2023-05-09T12:38:04;11.15;;;8.82;;
27412;SDS011;14871;52.702;5.230;2023-05-09T12:40:29;9.95;;;8.95;;
27412;SDS011;14871;52.702;5.230;2023-05-09T12:42:56;10.65;;;9.00;;
27412;SDS011;14871;52.702;5.230;2023-05-09T12:45:26;11.73;;;9.07;;
27412;SDS011;14871;52.702;5.230;2023-05-09T12:47:52;11.32;;;9.10;;
27412;SDS011;14871;52.702;5.230;2023-05-09T12:50:18;11.93;;;9.60;;
27412;SDS011;14871;52.702;5.230;2023-05-09T12:52:48;10.93;;;9.55;;
27412;SDS011;14871;52.702;5.230;2023-05-09T12:55:15;10.52;;;9.45;;
27412;SDS011;14871;52.702;5.230;2023-05-09T12:57:48;10.07;;;9.00;;
27412;SDS011;14871;52.702;5.230;2023-05-09T13:00:25;10.88;;;9.45;;
27412;SDS011;14871;52.702;5.230;2023-05-09T13:02:51;9.68;;;8.25;;
27412;SDS011;14871;52.702;5.230;2023-05-09T13:05:17;10.40;;;9.27;;
27412;SDS011;14871;52.702;5.230;2023-05-09T13:07:46;10.55;;;9.45;;
27412;SDS011;14871;52.702;5.230;2023-05-09T13:10:14;11.23;;;10.02;;
27412;SDS011;14871;52.702;5.230;2023-05-09T13:12:43;10.15;;;8.98;;
27412;SDS011;14871;52.702;5.230;2023-05-09T13:15:12;11.07;;;9.57;;
27412;SDS011;14871;52.702;5.230;2023-05-09T13:17:38;10.13;;;9.10;;
27412;SDS011;14871;52.702;5.230;2023-05-09T13:20:04;10.18;;;9.05;;
27412;SDS011;14871;52.702;5.230;2023-05-09T13:22:30;12.18;;;9.23;;
27412;SDS011;14871;52.702;5.230;2023-05-09T13:24:56;9.98;;;8.75;;
27412;SDS011;14871;52.702;5.230;2023-05-09T13:27:22;13.05;;;9.55;;
27412;SDS011;14871;52.702;5.230;2023-05-09T13:29:48;12.23;;;9.18;;
27412;SDS011;14871;52.702;5.230;2023-05-09T13:32:14;10.80;;;9.60;;
27412;SDS011;14871;52.702;5.230;2023-05-09T13:34:40;11.55;;;8.48;;
27412;SDS011;14871;52.702;5.230;2023-05-09T13:37:06;10.70;;;9.15;;
27412;SDS011;14871;52.702;5.230;2023-05-09T13:39:32;11.50;;;9.05;;
27412;SDS011;14871;52.702;5.230;2023-05-09T13:41:58;10.93;;;8.95;;
27412;SDS011;14871;52.702;5.230;2023-05-09T13:44:24;10.05;;;9.05;;
27412;SDS011;14871;52.702;5.230;2023-05-09T13:46:49;11.07;;;9.00;;
27412;SDS011;14871;52.702;5.230;2023-05-09T13:49:15;10.23;;;9.15;;
27412;SDS011;14871;52.702;5.230;2023-05-09T13:51:41;10.55;;;9.30;;
27412;SDS011;14871;52.702;5.230;2023-05-09T13:54:07;9.80;;;8.90;;
27412;SDS011;14871;52.702;5.230;2023-05-09T13:56:39;10.18;;;9.07;;
27412;SDS011;14871;52.702;5.230;2023-05-09T13:59:06;10.27;;;9.23;;
27412;SDS011;14871;52.702;5.230;2023-05-09T14:01:33;9.80;;;8.57;;
27412;SDS011;14871;52.702;5.230;2023-05-09T14:03:59;9.38;;;8.38;;
27412;SDS011;14871;52.702;5.230;2023-05-09T14:06:26;10.02;;;8.43;;
27412;SDS011;14871;52.702;5.230;2023-05-09T14:08:54;9.45;;;8.52;;
27412;SDS011;14871;52.702;5.230;2023-05-09T14:11:20;9.98;;;8.98;;
27412;SDS011;14871;52.702;5.230;2023-05-09T14:13:46;11.30;;;8.77;;
27412;SDS011;14871;52.702;5.230;2023-05-09T14:16:12;10.30;;;9.20;;
27412;SDS011;14871;52.702;5.230;2023-05-09T14:18:38;10.07;;;8.45;;
27412;SDS011;14871;52.702;5.230;2023-05-09T14:21:05;10.15;;;9.05;;
27412;SDS011;14871;52.702;5.230;2023-05-09T14:23:34;9.38;;;8.45;;
27412;SDS011;14871;52.702;5.230;2023-05-09T14:26:02;8.57;;;7.63;;
27412;SDS011;14871;52.702;5.230;2023-05-09T14:28:28;7.30;;;6.47;;
27412;SDS011;14871;52.702;5.230;2023-05-09T14:30:54;8.48;;;7.50;;
27412;SDS011;14871;52.702;5.230;2023-05-09T14:33:24;8.95;;;8.07;;
27412;SDS011;14871;52.702;5.230;2023-05-09T14:35:51;9.13;;;8.25;;
27412;SDS011;14871;52.702;5.230;2023-05-09T14:38:17;7.85;;;7.05;;
27412;SDS011;14871;52.702;5.230;2023-05-09T14:40:43;8.20;;;7.18;;
27412;SDS011;14871;52.702;5.230;2023-05-09T14:43:09;6.47;;;5.88;;
27412;SDS011;14871;52.702;5.230;2023-05-09T14:45:36;4.30;;;3.75;;
27412;SDS011;14871;52.702;5.230;2023-05-09T14:48:03;3.85;;;3.45;;
27412;SDS011;14871;52.702;5.230;2023-05-09T14:50:29;4.22;;;3.83;;
27412;SDS011;14871;52.702;5.230;2023-05-09T14:52:55;4.60;;;4.20;;
27412;SDS011;14871;52.702;5.230;2023-05-09T14:55:21;5.18;;;4.68;;